sensor_id;sensor_type;location;lat;lon;timestamp;P1;durP1;ratioP1;P2;durP2;ratioP2
24635;SDS011;12772;49.794;10.024;2022-08-19T00:01:25;18.73;;;16.92;;
24635;SDS011;12772;49.794;10.024;2022-08-19T00:05:29;19.75;;;17.95;;
24635;SDS011;12772;49.794;10.024;2022-08-19T00:09:32;18.52;;;16.83;;
24635;SDS011;12772;49.794;10.024;2022-08-19T00:13:34;17.27;;;15.77;;
24635;SDS011;12772;49.794;10.024;2022-08-19T00:17:38;18.20;;;16.42;;
24635;SDS011;12772;49.794;10.024;2022-08-19T00:21:42;19.42;;;17.63;;
24635;SDS011;12772;49.794;10.024;2022-08-19T00:25:45;19.52;;;17.83;;
24635;SDS011;12772;49.794;10.024;2022-08-19T00:29:47;19.42;;;17.73;;
24635;SDS011;12772;49.794;10.024;2022-08-19T00:33:49;20.02;;;18.23;;
24635;SDS011;12772;49.794;10.024;2022-08-19T00:37:51;17.27;;;15.75;;
24635;SDS011;12772;49.794;10.024;2022-08-19T00:41:53;20.65;;;18.52;;
24635;SDS011;12772;49.794;10.024;2022-08-19T00:45:55;18.30;;;16.60;;
24635;SDS011;12772;49.794;10.024;2022-08-19T00:49:57;21.83;;;18.27;;
24635;SDS011;12772;49.794;10.024;2022-08-19T00:54:00;18.77;;;16.98;;
24635;SDS011;12772;49.794;10.024;2022-08-19T00:58:06;20.33;;;18.52;;
24635;SDS011;12772;49.794;10.024;2022-08-19T01:02:12;21.73;;;19.73;;
24635;SDS011;12772;49.794;10.024;2022-08-19T01:06:15;20.90;;;19.02;;
24635;SDS011;12772;49.794;10.024;2022-08-19T01:10:19;20.15;;;18.23;;
24635;SDS011;12772;49.794;10.024;2022-08-19T01:14:23;20.75;;;18.83;;
24635;SDS011;12772;49.794;10.024;2022-08-19T01:18:26;19.73;;;17.83;;
24635;SDS011;12772;49.794;10.024;2022-08-19T01:22:34;19.60;;;17.80;;
24635;SDS011;12772;49.794;10.024;2022-08-19T01:26:39;19.05;;;17.08;;
24635;SDS011;12772;49.794;10.024;2022-08-19T01:30:44;19.55;;;17.60;;
24635;SDS011;12772;49.794;10.024;2022-08-19T01:34:46;18.20;;;16.40;;
24635;SDS011;12772;49.794;10.024;2022-08-19T01:38:48;19.55;;;17.63;;
24635;SDS011;12772;49.794;10.024;2022-08-19T01:42:51;19.52;;;17.75;;
24635;SDS011;12772;49.794;10.024;2022-08-19T01:46:54;20.02;;;17.92;;
24635;SDS011;12772;49.794;10.024;2022-08-19T01:50:56;18.15;;;16.42;;
24635;SDS011;12772;49.794;10.024;2022-08-19T01:54:58;19.42;;;17.50;;
24635;SDS011;12772;49.794;10.024;2022-08-19T01:59:03;19.08;;;17.35;;
24635;SDS011;12772;49.794;10.024;2022-08-19T02:03:09;18.35;;;16.65;;
24635;SDS011;12772;49.794;10.024;2022-08-19T02:07:11;19.85;;;18.02;;
24635;SDS011;12772;49.794;10.024;2022-08-19T02:11:21;19.55;;;17.67;;
24635;SDS011;12772;49.794;10.024;2022-08-19T02:15:26;18.98;;;17.17;;
24635;SDS011;12772;49.794;10.024;2022-08-19T02:19:28;17.70;;;16.10;;
24635;SDS011;12772;49.794;10.024;2022-08-19T02:23:32;17.45;;;15.85;;
24635;SDS011;12772;49.794;10.024;2022-08-19T02:27:34;18.30;;;16.70;;
24635;SDS011;12772;49.794;10.024;2022-08-19T02:31:36;16.45;;;15.05;;
24635;SDS011;12772;49.794;10.024;2022-08-19T02:35:40;18.48;;;16.73;;
24635;SDS011;12772;49.794;10.024;2022-08-19T02:39:44;17.30;;;15.80;;
24635;SDS011;12772;49.794;10.024;2022-08-19T02:43:46;16.98;;;15.48;;
24635;SDS011;12772;49.794;10.024;2022-08-19T02:47:49;16.20;;;14.75;;
24635;SDS011;12772;49.794;10.024;2022-08-19T02:51:51;17.13;;;15.52;;
24635;SDS011;12772;49.794;10.024;2022-08-19T02:55:53;17.92;;;16.33;;
24635;SDS011;12772;49.794;10.024;2022-08-19T02:59:55;17.85;;;16.25;;
24635;SDS011;12772;49.794;10.024;2022-08-19T03:03:58;19.23;;;17.25;;
24635;SDS011;12772;49.794;10.024;2022-08-19T03:08:03;19.27;;;17.48;;
24635;SDS011;12772;49.794;10.024;2022-08-19T03:12:06;17.17;;;15.52;;
24635;SDS011;12772;49.794;10.024;2022-08-19T03:16:08;17.05;;;15.57;;
24635;SDS011;12772;49.794;10.024;2022-08-19T03:20:11;17.20;;;15.68;;
24635;SDS011;12772;49.794;10.024;2022-08-19T03:24:13;17.58;;;15.80;;
24635;SDS011;12772;49.794;10.024;2022-08-19T03:28:17;17.80;;;16.02;;
24635;SDS011;12772;49.794;10.024;2022-08-19T03:32:19;18.25;;;16.63;;
24635;SDS011;12772;49.794;10.024;2022-08-19T03:36:24;17.92;;;16.30;;
24635;SDS011;12772;49.794;10.024;2022-08-19T03:40:27;17.00;;;15.30;;
24635;SDS011;12772;49.794;10.024;2022-08-19T03:44:31;17.20;;;15.55;;
24635;SDS011;12772;49.794;10.024;2022-08-19T03:48:34;16.33;;;14.82;;
24635;SDS011;12772;49.794;10.024;2022-08-19T03:52:37;17.30;;;15.57;;
24635;SDS011;12772;49.794;10.024;2022-08-19T03:56:40;17.33;;;15.70;;
24635;SDS011;12772;49.794;10.024;2022-08-19T04:00:43;16.83;;;15.32;;
24635;SDS011;12772;49.794;10.024;2022-08-19T04:04:45;18.15;;;16.55;;
24635;SDS011;12772;49.794;10.024;2022-08-19T04:08:48;18.67;;;16.73;;
24635;SDS011;12772;49.794;10.024;2022-08-19T04:12:54;17.10;;;15.43;;
24635;SDS011;12772;49.794;10.024;2022-08-19T04:16:56;17.60;;;16.00;;
24635;SDS011;12772;49.794;10.024;2022-08-19T04:20:59;17.08;;;15.32;;
24635;SDS011;12772;49.794;10.024;2022-08-19T04:25:01;18.42;;;16.65;;
24635;SDS011;12772;49.794;10.024;2022-08-19T04:29:08;18.25;;;16.65;;
24635;SDS011;12772;49.794;10.024;2022-08-19T04:33:13;16.60;;;15.00;;
24635;SDS011;12772;49.794;10.024;2022-08-19T04:37:16;16.63;;;15.23;;
24635;SDS011;12772;49.794;10.024;2022-08-19T04:41:19;17.20;;;15.50;;
24635;SDS011;12772;49.794;10.024;2022-08-19T04:45:38;17.17;;;15.48;;
24635;SDS011;12772;49.794;10.024;2022-08-19T04:49:40;15.98;;;14.50;;
24635;SDS011;12772;49.794;10.024;2022-08-19T04:53:42;16.67;;;15.07;;
24635;SDS011;12772;49.794;10.024;2022-08-19T04:57:44;16.30;;;14.90;;
24635;SDS011;12772;49.794;10.024;2022-08-19T05:01:47;17.13;;;15.50;;
24635;SDS011;12772;49.794;10.024;2022-08-19T05:05:50;16.27;;;14.80;;
24635;SDS011;12772;49.794;10.024;2022-08-19T05:09:52;16.35;;;14.93;;
24635;SDS011;12772;49.794;10.024;2022-08-19T05:13:54;16.38;;;14.88;;
24635;SDS011;12772;49.794;10.024;2022-08-19T05:17:57;16.45;;;14.85;;
24635;SDS011;12772;49.794;10.024;2022-08-19T05:22:19;15.80;;;14.30;;
24635;SDS011;12772;49.794;10.024;2022-08-19T05:26:35;17.08;;;15.38;;
24635;SDS011;12772;49.794;10.024;2022-08-19T05:30:38;17.25;;;15.63;;
24635;SDS011;12772;49.794;10.024;2022-08-19T05:34:41;15.10;;;13.63;;
24635;SDS011;12772;49.794;10.024;2022-08-19T05:38:43;15.23;;;13.82;;
24635;SDS011;12772;49.794;10.024;2022-08-19T05:42:45;14.25;;;12.95;;
24635;SDS011;12772;49.794;10.024;2022-08-19T05:46:47;14.25;;;12.85;;
24635;SDS011;12772;49.794;10.024;2022-08-19T05:50:53;16.00;;;14.52;;
24635;SDS011;12772;49.794;10.024;2022-08-19T05:54:55;13.88;;;12.45;;
24635;SDS011;12772;49.794;10.024;2022-08-19T05:58:58;14.57;;;13.02;;
24635;SDS011;12772;49.794;10.024;2022-08-19T06:03:00;15.32;;;13.82;;
24635;SDS011;12772;49.794;10.024;2022-08-19T06:07:03;13.75;;;12.45;;
24635;SDS011;12772;49.794;10.024;2022-08-19T06:11:12;14.88;;;13.13;;
24635;SDS011;12772;49.794;10.024;2022-08-19T06:15:17;14.35;;;13.18;;
24635;SDS011;12772;49.794;10.024;2022-08-19T06:19:20;13.88;;;12.65;;
24635;SDS011;12772;49.794;10.024;2022-08-19T06:23:24;12.75;;;11.48;;
24635;SDS011;12772;49.794;10.024;2022-08-19T06:27:26;13.90;;;12.60;;
24635;SDS011;12772;49.794;10.024;2022-08-19T06:31:31;12.48;;;11.27;;
24635;SDS011;12772;49.794;10.024;2022-08-19T06:35:38;13.65;;;12.25;;
24635;SDS011;12772;49.794;10.024;2022-08-19T06:39:42;12.93;;;11.82;;
24635;SDS011;12772;49.794;10.024;2022-08-19T06:43:45;12.27;;;11.18;;
24635;SDS011;12772;49.794;10.024;2022-08-19T06:47:49;14.38;;;12.00;;
24635;SDS011;12772;49.794;10.024;2022-08-19T06:51:54;13.68;;;12.18;;
24635;SDS011;12772;49.794;10.024;2022-08-19T06:55:57;14.48;;;11.70;;
24635;SDS011;12772;49.794;10.024;2022-08-19T07:00:03;12.57;;;11.27;;
24635;SDS011;12772;49.794;10.024;2022-08-19T07:04:07;11.80;;;10.80;;
24635;SDS011;12772;49.794;10.024;2022-08-19T07:08:10;13.35;;;12.00;;
24635;SDS011;12772;49.794;10.024;2022-08-19T07:12:13;13.45;;;10.77;;
24635;SDS011;12772;49.794;10.024;2022-08-19T07:16:16;12.48;;;11.27;;
24635;SDS011;12772;49.794;10.024;2022-08-19T07:20:20;11.85;;;10.75;;
24635;SDS011;12772;49.794;10.024;2022-08-19T07:24:24;11.15;;;10.05;;
24635;SDS011;12772;49.794;10.024;2022-08-19T07:28:27;13.05;;;11.68;;
24635;SDS011;12772;49.794;10.024;2022-08-19T07:32:32;13.25;;;10.88;;
24635;SDS011;12772;49.794;10.024;2022-08-19T07:36:35;13.07;;;11.82;;
24635;SDS011;12772;49.794;10.024;2022-08-19T07:40:39;12.18;;;11.02;;
24635;SDS011;12772;49.794;10.024;2022-08-19T07:44:41;10.88;;;9.60;;
24635;SDS011;12772;49.794;10.024;2022-08-19T07:48:44;11.35;;;10.07;;
24635;SDS011;12772;49.794;10.024;2022-08-19T07:52:47;12.25;;;11.10;;
24635;SDS011;12772;49.794;10.024;2022-08-19T07:56:50;11.05;;;10.05;;
24635;SDS011;12772;49.794;10.024;2022-08-19T08:00:53;11.48;;;10.38;;
24635;SDS011;12772;49.794;10.024;2022-08-19T08:04:56;10.60;;;9.70;;
24635;SDS011;12772;49.794;10.024;2022-08-19T08:09:18;11.30;;;10.27;;
24635;SDS011;12772;49.794;10.024;2022-08-19T08:13:24;10.88;;;9.98;;
24635;SDS011;12772;49.794;10.024;2022-08-19T08:17:27;10.93;;;9.82;;
24635;SDS011;12772;49.794;10.024;2022-08-19T08:21:30;12.48;;;11.25;;
24635;SDS011;12772;49.794;10.024;2022-08-19T08:25:33;10.60;;;9.60;;
24635;SDS011;12772;49.794;10.024;2022-08-19T08:29:36;10.07;;;9.27;;
24635;SDS011;12772;49.794;10.024;2022-08-19T08:33:40;11.45;;;10.30;;
24635;SDS011;12772;49.794;10.024;2022-08-19T08:37:43;11.38;;;10.40;;
24635;SDS011;12772;49.794;10.024;2022-08-19T08:46:14;10.93;;;10.10;;
24635;SDS011;12772;49.794;10.024;2022-08-19T08:50:58;11.82;;;10.80;;
24635;SDS011;12772;49.794;10.024;2022-08-19T08:54:55;10.88;;;9.98;;
24635;SDS011;12772;49.794;10.024;2022-08-19T08:59:02;11.73;;;10.75;;
24635;SDS011;12772;49.794;10.024;2022-08-19T09:03:21;11.73;;;10.65;;
24635;SDS011;12772;49.794;10.024;2022-08-19T09:16:12;11.90;;;10.77;;
24635;SDS011;12772;49.794;10.024;2022-08-19T09:20:20;10.82;;;9.93;;
24635;SDS011;12772;49.794;10.024;2022-08-19T09:24:24;11.60;;;10.50;;
24635;SDS011;12772;49.794;10.024;2022-08-19T09:28:26;12.20;;;11.20;;
24635;SDS011;12772;49.794;10.024;2022-08-19T09:32:29;13.45;;;12.15;;
24635;SDS011;12772;49.794;10.024;2022-08-19T09:36:32;12.20;;;11.02;;
24635;SDS011;12772;49.794;10.024;2022-08-19T09:40:36;12.18;;;11.07;;
24635;SDS011;12772;49.794;10.024;2022-08-19T09:44:39;11.43;;;10.52;;
24635;SDS011;12772;49.794;10.024;2022-08-19T09:48:42;12.65;;;11.60;;
24635;SDS011;12772;49.794;10.024;2022-08-19T09:52:46;12.05;;;11.02;;
24635;SDS011;12772;49.794;10.024;2022-08-19T09:56:48;11.25;;;10.30;;
24635;SDS011;12772;49.794;10.024;2022-08-19T10:00:50;11.52;;;10.55;;
24635;SDS011;12772;49.794;10.024;2022-08-19T10:04:54;11.70;;;10.68;;
24635;SDS011;12772;49.794;10.024;2022-08-19T10:09:14;10.80;;;9.90;;
24635;SDS011;12772;49.794;10.024;2022-08-19T10:13:19;13.50;;;12.25;;
24635;SDS011;12772;49.794;10.024;2022-08-19T10:17:25;10.88;;;10.00;;
24635;SDS011;12772;49.794;10.024;2022-08-19T10:21:29;10.68;;;9.77;;
24635;SDS011;12772;49.794;10.024;2022-08-19T10:25:34;13.25;;;11.25;;
24635;SDS011;12772;49.794;10.024;2022-08-19T10:29:37;10.02;;;9.13;;
24635;SDS011;12772;49.794;10.024;2022-08-19T10:33:39;11.18;;;10.18;;
24635;SDS011;12772;49.794;10.024;2022-08-19T10:37:42;9.45;;;8.65;;
24635;SDS011;12772;49.794;10.024;2022-08-19T10:41:44;7.07;;;6.47;;
24635;SDS011;12772;49.794;10.024;2022-08-19T10:45:53;11.30;;;7.15;;
24635;SDS011;12772;49.794;10.024;2022-08-19T10:49:58;5.93;;;5.40;;
24635;SDS011;12772;49.794;10.024;2022-08-19T10:54:15;6.13;;;5.60;;
24635;SDS011;12772;49.794;10.024;2022-08-19T10:58:18;7.30;;;6.45;;
24635;SDS011;12772;49.794;10.024;2022-08-19T11:02:26;7.10;;;6.47;;
24635;SDS011;12772;49.794;10.024;2022-08-19T11:06:29;7.35;;;6.72;;
24635;SDS011;12772;49.794;10.024;2022-08-19T11:10:33;7.45;;;6.75;;
24635;SDS011;12772;49.794;10.024;2022-08-19T11:14:35;6.80;;;6.30;;
24635;SDS011;12772;49.794;10.024;2022-08-19T11:18:39;7.35;;;6.75;;
24635;SDS011;12772;49.794;10.024;2022-08-19T11:22:47;6.00;;;5.50;;
24635;SDS011;12772;49.794;10.024;2022-08-19T11:26:49;5.13;;;4.72;;
24635;SDS011;12772;49.794;10.024;2022-08-19T11:30:53;5.35;;;4.95;;
24635;SDS011;12772;49.794;10.024;2022-08-19T11:34:55;5.32;;;4.88;;
24635;SDS011;12772;49.794;10.024;2022-08-19T11:38:57;5.78;;;4.70;;
24635;SDS011;12772;49.794;10.024;2022-08-19T11:43:00;5.25;;;4.75;;
24635;SDS011;12772;49.794;10.024;2022-08-19T11:47:02;4.70;;;4.30;;
24635;SDS011;12772;49.794;10.024;2022-08-19T11:51:05;4.80;;;4.22;;
24635;SDS011;12772;49.794;10.024;2022-08-19T11:55:09;3.78;;;3.58;;
24635;SDS011;12772;49.794;10.024;2022-08-19T11:59:11;4.28;;;3.88;;
24635;SDS011;12772;49.794;10.024;2022-08-19T12:03:13;6.65;;;3.75;;
24635;SDS011;12772;49.794;10.024;2022-08-19T12:07:15;3.85;;;3.55;;
24635;SDS011;12772;49.794;10.024;2022-08-19T12:11:18;4.20;;;3.55;;
24635;SDS011;12772;49.794;10.024;2022-08-19T12:15:20;3.90;;;3.55;;
24635;SDS011;12772;49.794;10.024;2022-08-19T12:19:22;4.07;;;3.47;;
24635;SDS011;12772;49.794;10.024;2022-08-19T12:23:25;4.68;;;3.40;;
24635;SDS011;12772;49.794;10.024;2022-08-19T12:27:27;3.80;;;3.38;;
24635;SDS011;12772;49.794;10.024;2022-08-19T12:31:29;2.95;;;2.67;;
24635;SDS011;12772;49.794;10.024;2022-08-19T12:35:32;3.95;;;3.47;;
24635;SDS011;12772;49.794;10.024;2022-08-19T12:39:35;3.28;;;2.97;;
24635;SDS011;12772;49.794;10.024;2022-08-19T12:43:41;2.78;;;2.65;;
24635;SDS011;12772;49.794;10.024;2022-08-19T12:47:43;2.78;;;2.58;;
24635;SDS011;12772;49.794;10.024;2022-08-19T12:51:46;5.60;;;3.13;;
24635;SDS011;12772;49.794;10.024;2022-08-19T12:55:54;2.80;;;2.45;;
24635;SDS011;12772;49.794;10.024;2022-08-19T12:59:57;3.05;;;2.47;;
24635;SDS011;12772;49.794;10.024;2022-08-19T13:04:01;3.13;;;2.58;;
24635;SDS011;12772;49.794;10.024;2022-08-19T13:08:03;2.65;;;2.45;;
24635;SDS011;12772;49.794;10.024;2022-08-19T13:12:05;3.53;;;2.78;;
24635;SDS011;12772;49.794;10.024;2022-08-19T13:16:08;2.80;;;2.60;;
24635;SDS011;12772;49.794;10.024;2022-08-19T13:20:12;3.13;;;2.45;;
24635;SDS011;12772;49.794;10.024;2022-08-19T13:24:14;2.50;;;1.98;;
24635;SDS011;12772;49.794;10.024;2022-08-19T13:28:16;2.38;;;2.05;;
24635;SDS011;12772;49.794;10.024;2022-08-19T13:32:18;2.30;;;2.15;;
24635;SDS011;12772;49.794;10.024;2022-08-19T13:36:38;5.95;;;2.65;;
24635;SDS011;12772;49.794;10.024;2022-08-19T13:40:41;3.13;;;1.98;;
24635;SDS011;12772;49.794;10.024;2022-08-19T13:44:43;2.20;;;2.10;;
24635;SDS011;12772;49.794;10.024;2022-08-19T13:48:46;2.05;;;1.90;;
24635;SDS011;12772;49.794;10.024;2022-08-19T13:52:49;2.10;;;1.90;;
24635;SDS011;12772;49.794;10.024;2022-08-19T13:56:51;2.08;;;1.92;;
24635;SDS011;12772;49.794;10.024;2022-08-19T14:00:53;2.63;;;2.03;;
24635;SDS011;12772;49.794;10.024;2022-08-19T14:04:55;2.95;;;1.90;;
24635;SDS011;12772;49.794;10.024;2022-08-19T14:08:58;2.83;;;2.00;;
24635;SDS011;12772;49.794;10.024;2022-08-19T14:13:01;2.17;;;2.00;;
24635;SDS011;12772;49.794;10.024;2022-08-19T14:17:07;2.95;;;1.77;;
24635;SDS011;12772;49.794;10.024;2022-08-19T14:21:14;3.25;;;2.20;;
24635;SDS011;12772;49.794;10.024;2022-08-19T14:25:19;2.50;;;1.90;;
24635;SDS011;12772;49.794;10.024;2022-08-19T14:29:23;2.20;;;2.10;;
24635;SDS011;12772;49.794;10.024;2022-08-19T14:33:25;2.88;;;2.00;;
24635;SDS011;12772;49.794;10.024;2022-08-19T14:37:28;2.45;;;1.90;;
24635;SDS011;12772;49.794;10.024;2022-08-19T14:41:30;2.17;;;1.95;;
24635;SDS011;12772;49.794;10.024;2022-08-19T14:45:35;2.88;;;2.05;;
24635;SDS011;12772;49.794;10.024;2022-08-19T14:49:38;2.40;;;2.30;;
24635;SDS011;12772;49.794;10.024;2022-08-19T14:53:40;2.38;;;2.28;;
24635;SDS011;12772;49.794;10.024;2022-08-19T14:57:43;4.07;;;2.53;;
24635;SDS011;12772;49.794;10.024;2022-08-19T15:01:46;2.90;;;2.42;;
24635;SDS011;12772;49.794;10.024;2022-08-19T15:05:48;2.58;;;2.38;;
24635;SDS011;12772;49.794;10.024;2022-08-19T15:09:51;2.33;;;2.13;;
24635;SDS011;12772;49.794;10.024;2022-08-19T15:13:56;6.70;;;4.70;;
24635;SDS011;12772;49.794;10.024;2022-08-19T15:17:58;5.40;;;3.70;;
24635;SDS011;12772;49.794;10.024;2022-08-19T15:22:02;3.22;;;3.03;;
24635;SDS011;12772;49.794;10.024;2022-08-19T15:26:05;3.33;;;2.78;;
24635;SDS011;12772;49.794;10.024;2022-08-19T15:30:09;4.60;;;2.67;;
24635;SDS011;12772;49.794;10.024;2022-08-19T15:34:12;3.17;;;2.38;;
24635;SDS011;12772;49.794;10.024;2022-08-19T15:38:14;3.47;;;2.80;;
24635;SDS011;12772;49.794;10.024;2022-08-19T15:42:20;2.60;;;2.50;;
24635;SDS011;12772;49.794;10.024;2022-08-19T15:46:23;3.00;;;2.50;;
24635;SDS011;12772;49.794;10.024;2022-08-19T15:50:28;2.78;;;2.40;;
24635;SDS011;12772;49.794;10.024;2022-08-19T15:54:31;2.88;;;2.50;;
24635;SDS011;12772;49.794;10.024;2022-08-19T15:58:33;3.80;;;2.17;;
24635;SDS011;12772;49.794;10.024;2022-08-19T16:02:53;4.43;;;2.45;;
24635;SDS011;12772;49.794;10.024;2022-08-19T16:07:13;2.45;;;2.35;;
24635;SDS011;12772;49.794;10.024;2022-08-19T16:11:18;2.72;;;2.53;;
24635;SDS011;12772;49.794;10.024;2022-08-19T16:15:21;3.03;;;2.45;;
24635;SDS011;12772;49.794;10.024;2022-08-19T16:19:25;2.05;;;1.95;;
24635;SDS011;12772;49.794;10.024;2022-08-19T16:23:27;3.60;;;2.50;;
24635;SDS011;12772;49.794;10.024;2022-08-19T16:27:29;3.53;;;2.40;;
24635;SDS011;12772;49.794;10.024;2022-08-19T16:31:31;3.13;;;2.25;;
24635;SDS011;12772;49.794;10.024;2022-08-19T16:35:33;2.72;;;2.53;;
24635;SDS011;12772;49.794;10.024;2022-08-19T16:39:36;3.00;;;2.80;;
24635;SDS011;12772;49.794;10.024;2022-08-19T16:43:39;2.60;;;2.40;;
24635;SDS011;12772;49.794;10.024;2022-08-19T16:47:41;3.33;;;2.90;;
24635;SDS011;12772;49.794;10.024;2022-08-19T16:51:43;3.22;;;2.92;;
24635;SDS011;12772;49.794;10.024;2022-08-19T16:55:46;3.38;;;3.08;;
24635;SDS011;12772;49.794;10.024;2022-08-19T16:59:50;3.70;;;3.38;;
24635;SDS011;12772;49.794;10.024;2022-08-19T17:03:52;3.40;;;3.20;;
24635;SDS011;12772;49.794;10.024;2022-08-19T17:07:55;4.80;;;3.90;;
24635;SDS011;12772;49.794;10.024;2022-08-19T17:11:57;5.45;;;4.60;;
24635;SDS011;12772;49.794;10.024;2022-08-19T17:15:59;4.90;;;4.40;;
24635;SDS011;12772;49.794;10.024;2022-08-19T17:20:02;7.43;;;5.03;;
24635;SDS011;12772;49.794;10.024;2022-08-19T17:24:06;5.50;;;5.10;;
24635;SDS011;12772;49.794;10.024;2022-08-19T17:28:11;5.88;;;4.35;;
24635;SDS011;12772;49.794;10.024;2022-08-19T17:32:21;5.43;;;4.30;;
24635;SDS011;12772;49.794;10.024;2022-08-19T17:36:24;4.45;;;4.10;;
24635;SDS011;12772;49.794;10.024;2022-08-19T17:40:28;4.50;;;4.20;;
24635;SDS011;12772;49.794;10.024;2022-08-19T17:44:30;6.00;;;4.22;;
24635;SDS011;12772;49.794;10.024;2022-08-19T17:48:35;7.63;;;4.15;;
24635;SDS011;12772;49.794;10.024;2022-08-19T17:52:38;4.13;;;3.83;;
24635;SDS011;12772;49.794;10.024;2022-08-19T17:56:42;5.22;;;4.60;;
24635;SDS011;12772;49.794;10.024;2022-08-19T18:00:45;5.32;;;4.07;;
24635;SDS011;12772;49.794;10.024;2022-08-19T18:04:48;4.63;;;4.22;;
24635;SDS011;12772;49.794;10.024;2022-08-19T18:08:50;4.10;;;3.70;;
24635;SDS011;12772;49.794;10.024;2022-08-19T18:12:52;4.35;;;3.95;;
24635;SDS011;12772;49.794;10.024;2022-08-19T18:16:54;6.22;;;4.65;;
24635;SDS011;12772;49.794;10.024;2022-08-19T18:20:57;4.68;;;4.13;;
24635;SDS011;12772;49.794;10.024;2022-08-19T18:24:59;4.40;;;4.00;;
24635;SDS011;12772;49.794;10.024;2022-08-19T18:29:02;4.35;;;3.90;;
24635;SDS011;12772;49.794;10.024;2022-08-19T18:33:05;4.47;;;4.18;;
24635;SDS011;12772;49.794;10.024;2022-08-19T18:37:13;4.10;;;3.85;;
24635;SDS011;12772;49.794;10.024;2022-08-19T18:41:15;4.40;;;3.42;;
24635;SDS011;12772;49.794;10.024;2022-08-19T18:45:36;5.50;;;4.00;;
24635;SDS011;12772;49.794;10.024;2022-08-19T18:54:54;4.47;;;3.55;;
24635;SDS011;12772;49.794;10.024;2022-08-19T18:58:59;4.18;;;3.50;;
24635;SDS011;12772;49.794;10.024;2022-08-19T19:03:02;4.38;;;3.58;;
24635;SDS011;12772;49.794;10.024;2022-08-19T19:07:04;3.63;;;3.42;;
24635;SDS011;12772;49.794;10.024;2022-08-19T19:11:07;4.00;;;3.67;;
24635;SDS011;12772;49.794;10.024;2022-08-19T19:15:10;3.10;;;2.90;;
24635;SDS011;12772;49.794;10.024;2022-08-19T19:19:13;3.10;;;2.90;;
24635;SDS011;12772;49.794;10.024;2022-08-19T19:23:16;3.10;;;2.80;;
24635;SDS011;12772;49.794;10.024;2022-08-19T19:27:20;3.17;;;2.97;;
24635;SDS011;12772;49.794;10.024;2022-08-19T19:31:25;5.20;;;3.05;;
24635;SDS011;12772;49.794;10.024;2022-08-19T19:35:28;3.38;;;3.17;;
24635;SDS011;12772;49.794;10.024;2022-08-19T19:39:30;2.67;;;2.55;;
24635;SDS011;12772;49.794;10.024;2022-08-19T19:43:32;3.25;;;3.05;;
24635;SDS011;12772;49.794;10.024;2022-08-19T19:47:34;3.95;;;3.28;;
24635;SDS011;12772;49.794;10.024;2022-08-19T19:51:37;3.83;;;3.10;;
24635;SDS011;12772;49.794;10.024;2022-08-19T19:55:40;2.65;;;2.50;;
24635;SDS011;12772;49.794;10.024;2022-08-19T19:59:43;3.05;;;2.90;;
24635;SDS011;12772;49.794;10.024;2022-08-19T20:03:45;3.00;;;2.80;;
24635;SDS011;12772;49.794;10.024;2022-08-19T20:07:48;3.13;;;2.92;;
24635;SDS011;12772;49.794;10.024;2022-08-19T20:12:09;4.75;;;3.00;;
24635;SDS011;12772;49.794;10.024;2022-08-19T20:16:11;5.03;;;3.20;;
24635;SDS011;12772;49.794;10.024;2022-08-19T20:20:14;3.55;;;3.05;;
24635;SDS011;12772;49.794;10.024;2022-08-19T20:24:19;3.35;;;3.05;;
24635;SDS011;12772;49.794;10.024;2022-08-19T20:28:24;2.95;;;2.75;;
24635;SDS011;12772;49.794;10.024;2022-08-19T20:32:27;3.47;;;3.20;;
24635;SDS011;12772;49.794;10.024;2022-08-19T20:36:30;4.30;;;3.90;;
24635;SDS011;12772;49.794;10.024;2022-08-19T20:40:33;3.78;;;3.58;;
24635;SDS011;12772;49.794;10.024;2022-08-19T20:44:37;3.58;;;3.28;;
24635;SDS011;12772;49.794;10.024;2022-08-19T20:48:39;4.72;;;4.32;;
24635;SDS011;12772;49.794;10.024;2022-08-19T20:52:42;5.13;;;4.60;;
24635;SDS011;12772;49.794;10.024;2022-08-19T20:56:44;4.57;;;4.25;;
24635;SDS011;12772;49.794;10.024;2022-08-19T21:00:47;4.88;;;4.50;;
24635;SDS011;12772;49.794;10.024;2022-08-19T21:04:50;4.93;;;4.20;;
24635;SDS011;12772;49.794;10.024;2022-08-19T21:08:52;6.20;;;5.70;;
24635;SDS011;12772;49.794;10.024;2022-08-19T21:12:54;6.03;;;5.53;;
24635;SDS011;12772;49.794;10.024;2022-08-19T21:16:56;5.70;;;5.22;;
24635;SDS011;12772;49.794;10.024;2022-08-19T21:20:58;5.63;;;5.18;;
24635;SDS011;12772;49.794;10.024;2022-08-19T21:25:01;6.57;;;6.00;;
24635;SDS011;12772;49.794;10.024;2022-08-19T21:29:03;5.75;;;5.35;;
24635;SDS011;12772;49.794;10.024;2022-08-19T21:33:05;5.32;;;4.93;;
24635;SDS011;12772;49.794;10.024;2022-08-19T21:37:07;5.20;;;4.70;;
24635;SDS011;12772;49.794;10.024;2022-08-19T21:41:10;6.50;;;6.00;;
24635;SDS011;12772;49.794;10.024;2022-08-19T21:45:13;5.63;;;5.13;;
24635;SDS011;12772;49.794;10.024;2022-08-19T21:49:16;6.07;;;5.57;;
24635;SDS011;12772;49.794;10.024;2022-08-19T21:53:21;5.50;;;4.97;;
24635;SDS011;12772;49.794;10.024;2022-08-19T21:57:24;6.53;;;5.90;;
24635;SDS011;12772;49.794;10.024;2022-08-19T22:01:26;5.85;;;5.18;;
24635;SDS011;12772;49.794;10.024;2022-08-19T22:05:28;5.32;;;4.82;;
24635;SDS011;12772;49.794;10.024;2022-08-19T22:09:32;6.65;;;6.05;;
24635;SDS011;12772;49.794;10.024;2022-08-19T22:13:34;6.65;;;6.00;;
24635;SDS011;12772;49.794;10.024;2022-08-19T22:17:38;6.95;;;6.22;;
24635;SDS011;12772;49.794;10.024;2022-08-19T22:21:41;7.18;;;6.50;;
24635;SDS011;12772;49.794;10.024;2022-08-19T22:25:44;5.80;;;5.25;;
24635;SDS011;12772;49.794;10.024;2022-08-19T22:29:47;5.97;;;5.47;;
24635;SDS011;12772;49.794;10.024;2022-08-19T22:33:49;6.32;;;5.85;;
24635;SDS011;12772;49.794;10.024;2022-08-19T22:37:51;7.63;;;6.03;;
24635;SDS011;12772;49.794;10.024;2022-08-19T22:41:53;5.68;;;5.18;;
24635;SDS011;12772;49.794;10.024;2022-08-19T22:45:56;6.80;;;5.28;;
24635;SDS011;12772;49.794;10.024;2022-08-19T22:49:59;6.32;;;5.82;;
24635;SDS011;12772;49.794;10.024;2022-08-19T22:54:02;6.28;;;5.43;;
24635;SDS011;12772;49.794;10.024;2022-08-19T22:58:04;5.93;;;5.43;;
24635;SDS011;12772;49.794;10.024;2022-08-19T23:02:07;5.90;;;5.50;;
24635;SDS011;12772;49.794;10.024;2022-08-19T23:06:10;5.65;;;5.20;;
24635;SDS011;12772;49.794;10.024;2022-08-19T23:10:13;9.32;;;5.60;;
24635;SDS011;12772;49.794;10.024;2022-08-19T23:14:15;7.72;;;5.25;;
24635;SDS011;12772;49.794;10.024;2022-08-19T23:18:18;5.95;;;5.45;;
24635;SDS011;12772;49.794;10.024;2022-08-19T23:22:20;6.30;;;5.55;;
24635;SDS011;12772;49.794;10.024;2022-08-19T23:26:22;6.85;;;5.40;;
24635;SDS011;12772;49.794;10.024;2022-08-19T23:30:24;6.20;;;5.70;;
24635;SDS011;12772;49.794;10.024;2022-08-19T23:34:26;6.53;;;5.93;;
24635;SDS011;12772;49.794;10.024;2022-08-19T23:38:28;5.45;;;4.95;;
24635;SDS011;12772;49.794;10.024;2022-08-19T23:42:31;5.22;;;4.82;;
24635;SDS011;12772;49.794;10.024;2022-08-19T23:46:33;6.65;;;6.05;;
24635;SDS011;12772;49.794;10.024;2022-08-19T23:50:36;5.40;;;5.00;;
24635;SDS011;12772;49.794;10.024;2022-08-19T23:54:40;5.03;;;4.55;;
24635;SDS011;12772;49.794;10.024;2022-08-19T23:58:42;6.05;;;5.53;;
